Time;durP1;ratioP1;P1;durP2;ratioP2;P2;SDS_P1;SDS_P2;PMS_P1;PMS_P2;Temp;Humidity;BMP_temperature;BMP_pressure;BME280_temperature;BME280_humidity;BME280_pressure;Samples;Min_cycle;Max_cycle;Signal;HPM_P1;HPM_P2
2023/08/24 00:02:25;;;;;;;5.37;3.03;;;;;;;25.83;75.25;100016.63;6279882;28;20286;-71
2023/08/24 00:05:26;;;;;;;4.30;3.15;;;;;;;25.75;75.89;100008.75;6297939;28;20048;-70
2023/08/24 00:08:27;;;;;;;6.88;3.20;;;;;;;25.76;75.50;100020.25;6283916;28;20546;-70
2023/08/24 00:11:28;;;;;;;4.80;3.37;;;;;;;25.54;76.36;100001.59;6278801;28;20167;-70
2023/08/24 00:14:32;;;;;;;3.97;3.00;;;;;;;25.67;76.03;100004.38;6278355;28;20045;-71
2023/08/24 00:17:33;;;;;;;9.10;3.78;;;;;;;25.70;75.70;99996.00;6288675;28;20040;-71
2023/08/24 00:20:34;;;;;;;4.83;3.30;;;;;;;25.59;75.69;100001.84;6286823;28;20080;-70
2023/08/24 00:23:34;;;;;;;4.18;3.10;;;;;;;25.57;76.01;100003.88;6295095;28;20499;-71
2023/08/24 00:26:35;;;;;;;3.80;2.77;;;;;;;25.54;76.28;100007.78;6292590;28;20588;-71
2023/08/24 00:29:36;;;;;;;4.18;3.45;;;;;;;25.60;76.23;100002.69;6277206;28;20420;-71
2023/08/24 00:32:39;;;;;;;3.67;3.13;;;;;;;25.50;76.54;99998.50;6294554;28;20041;-71
2023/08/24 00:35:40;;;;;;;5.28;3.85;;;;;;;25.34;77.34;99996.91;6294789;28;20050;-71
2023/08/24 00:38:42;;;;;;;3.83;3.43;;;;;;;25.38;77.38;99997.34;6294066;28;20048;-70
2023/08/24 00:41:43;;;;;;;5.47;3.47;;;;;;;25.42;77.49;100001.28;6273303;28;20607;-70
2023/08/24 00:44:44;;;;;;;5.82;3.53;;;;;;;25.21;77.43;99990.63;6271226;28;20083;-70
2023/08/24 00:47:47;;;;;;;8.50;3.77;;;;;;;25.44;77.42;99993.09;6272191;28;20045;-69
2023/08/24 00:50:48;;;;;;;3.22;2.92;;;;;;;25.50;76.37;99995.81;6272264;28;20137;-69
2023/08/24 00:53:49;;;;;;;3.80;3.30;;;;;;;25.53;76.85;99997.25;6272524;28;20049;-70
2023/08/24 00:56:49;;;;;;;6.55;3.35;;;;;;;25.40;76.55;99987.31;6295889;28;20127;-71
2023/08/24 00:59:50;;;;;;;5.37;3.17;;;;;;;25.51;76.39;99993.97;6295641;28;20063;-70
2023/08/24 01:02:53;;;;;;;4.10;2.57;;;;;;;25.44;76.45;99993.91;6295981;28;20049;-71
2023/08/24 01:05:54;;;;;;;4.85;3.13;;;;;;;25.52;75.78;99995.63;6296547;28;20105;-70
2023/08/24 01:08:55;;;;;;;4.90;3.63;;;;;;;25.49;76.60;99991.50;6295922;28;20049;-70
2023/08/24 01:12:18;;;;;;;4.20;3.23;;;;;;;25.49;76.35;99991.50;6295529;28;20076;-70
2023/08/24 01:15:29;;;;;;;6.03;3.60;;;;;;;25.53;75.67;99997.25;6296729;28;20051;-70
2023/08/24 01:18:31;;;;;;;5.07;3.77;;;;;;;25.48;76.12;99994.38;6295394;28;20048;-70
2023/08/24 01:21:32;;;;;;;;;;;;;;;25.47;76.23;99985.53;6296041;28;20049;-70
2023/08/24 01:24:43;;;;;;;5.18;3.38;;;;;;;25.56;75.80;99988.88;6296499;28;19927;-70
2023/08/24 01:27:47;;;;;;;4.15;3.03;;;;;;;25.56;75.85;99985.41;6295341;28;20060;-71
2023/08/24 01:30:50;;;;;;;4.65;3.20;;;;;;;25.50;75.37;99981.63;6295327;28;20493;-71
2023/08/24 01:33:51;;;;;;;5.45;3.78;;;;;;;25.49;75.77;99980.81;6296345;28;20044;-71
2023/08/24 01:36:52;;;;;;;5.50;3.45;;;;;;;25.46;75.57;99983.03;6295271;28;20489;-71
2023/08/24 01:40:09;;;;;;;4.70;3.27;;;;;;;25.40;76.03;99981.97;6295148;28;20045;-71
2023/08/24 01:43:13;;;;;;;4.63;3.30;;;;;;;25.43;75.70;99986.09;6295262;28;20496;-71
2023/08/24 01:46:17;;;;;;;4.72;3.58;;;;;;;25.39;75.82;99988.34;6294932;28;20098;-71
2023/08/24 01:49:19;;;;;;;4.68;3.17;;;;;;;25.30;76.51;99987.63;6295228;28;20102;-70
2023/08/24 01:52:21;;;;;;;4.35;3.42;;;;;;;25.34;76.06;99990.75;6294993;28;20055;-71
2023/08/24 01:55:22;;;;;;;6.50;3.63;;;;;;;25.39;75.70;99990.16;6297531;28;20139;-69
2023/08/24 01:58:23;;;;;;;;;;;;;;;25.40;75.53;99989.16;6299972;28;20052;-70
2023/08/24 02:01:24;;;;;;;6.00;3.65;;;;;;;25.44;75.02;99995.75;6301097;28;20024;-70
2023/08/24 02:04:25;;;;;;;4.80;3.40;;;;;;;25.32;75.70;99988.25;6300493;28;20055;-70
2023/08/24 02:07:28;;;;;;;4.93;3.20;;;;;;;25.24;76.04;99992.91;6300601;28;20048;-71
2023/08/24 02:10:32;;;;;;;5.40;3.20;;;;;;;25.18;75.97;99991.78;6300578;28;20053;-71
2023/08/24 02:13:33;;;;;;;4.57;3.00;;;;;;;25.11;76.39;99996.25;6299550;28;20052;-70
2023/08/24 02:16:35;;;;;;;4.10;3.17;;;;;;;25.02;76.56;99989.34;6299281;28;20068;-69
2023/08/24 02:19:38;;;;;;;5.68;3.13;;;;;;;25.02;77.16;99992.03;6300437;28;20148;-70
2023/08/24 02:22:42;;;;;;;5.13;3.20;;;;;;;25.03;77.44;99993.69;6299257;28;20048;-70
2023/08/24 02:25:45;;;;;;;6.13;3.50;;;;;;;25.03;77.20;99999.03;6300119;28;20051;-70
2023/08/24 02:28:45;;;;;;;4.18;3.17;;;;;;;25.08;76.45;100001.94;6299148;28;20045;-71
2023/08/24 02:31:49;;;;;;;4.87;3.17;;;;;;;25.03;76.86;99996.38;6299101;28;20059;-70
2023/08/24 02:34:51;;;;;;;4.28;3.47;;;;;;;25.02;77.04;99989.34;6299024;28;20098;-70
2023/08/24 02:37:56;;;;;;;4.05;3.35;;;;;;;25.03;76.59;99981.16;6298596;28;20496;-70
2023/08/24 02:41:01;;;;;;;5.97;3.55;;;;;;;25.00;76.84;99988.72;6300133;28;20055;-71
2023/08/24 02:44:03;;;;;;;6.68;3.75;;;;;;;25.02;76.44;99987.53;6299872;28;20090;-71
2023/08/24 02:47:04;;;;;;;5.63;3.67;;;;;;;25.03;76.69;99994.50;6299961;28;20051;-70
2023/08/24 02:50:08;;;;;;;3.92;3.28;;;;;;;24.94;76.17;99993.00;6299814;28;20075;-71
2023/08/24 02:53:09;;;;;;;5.32;3.53;;;;;;;24.86;76.77;99993.94;6299869;28;20056;-69
2023/08/24 02:56:10;;;;;;;5.13;3.70;;;;;;;24.88;76.95;99993.75;6298378;28;20044;-71
2023/08/24 02:59:11;;;;;;;6.07;3.80;;;;;;;24.87;76.99;100002.75;6299535;28;20052;-71
2023/08/24 03:02:14;;;;;;;4.67;3.50;;;;;;;24.91;77.18;100004.88;6299616;28;20084;-71
2023/08/24 03:05:15;;;;;;;7.30;3.50;;;;;;;24.86;77.45;100003.78;6297410;28;20110;-69
2023/08/24 03:08:16;;;;;;;4.77;3.77;;;;;;;24.85;76.97;100002.97;6299170;28;20044;-69
2023/08/24 03:11:19;;;;;;;6.97;3.63;;;;;;;24.84;77.36;100005.81;6298120;28;20053;-70
2023/08/24 03:14:24;;;;;;;5.10;3.65;;;;;;;24.77;77.98;100012.88;6299112;28;20413;-70
2023/08/24 03:17:26;;;;;;;7.75;3.90;;;;;;;24.68;78.30;100005.00;6298940;28;20051;-70
2023/08/24 03:20:26;;;;;;;8.23;3.83;;;;;;;24.72;78.13;100008.13;6297575;28;20052;-71
2023/08/24 03:23:27;;;;;;;5.00;3.43;;;;;;;24.75;77.90;100013.09;6297786;28;20071;-71
2023/08/24 03:26:28;;;;;;;6.78;4.22;;;;;;;24.76;78.49;100020.06;6298675;28;20408;-70
2023/08/24 03:29:29;;;;;;;5.87;4.33;;;;;;;24.67;79.34;100010.53;6297639;28;20049;-71
2023/08/24 03:32:30;;;;;;;5.43;3.87;;;;;;;24.73;79.56;100013.28;6298622;28;20052;-71
2023/08/24 03:35:32;;;;;;;8.37;4.13;;;;;;;24.77;79.30;100019.06;6297373;28;20109;-70
2023/08/24 03:38:35;;;;;;;8.98;4.43;;;;;;;24.67;79.90;100022.03;6297254;28;20182;-71
2023/08/24 03:41:35;;;;;;;7.60;4.53;;;;;;;24.53;81.93;100020.22;6298620;28;20048;-71
2023/08/24 03:44:36;;;;;;;6.67;4.80;;;;;;;24.44;82.26;100014.13;6297189;28;20051;-71
2023/08/24 03:47:37;;;;;;;7.37;5.17;;;;;;;24.55;82.80;100028.03;6297428;28;20105;-71
2023/08/24 03:50:38;;;;;;;7.40;4.90;;;;;;;24.63;82.37;100035.94;6298030;28;20067;-69
2023/08/24 03:53:39;;;;;;;8.70;5.07;;;;;;;24.64;83.18;100027.72;6296987;28;20045;-71
2023/08/24 03:56:39;;;;;;;7.23;5.37;;;;;;;24.62;82.92;100028.94;6296792;28;20045;-71
2023/08/24 03:59:40;;;;;;;9.93;5.17;;;;;;;24.57;83.72;100026.00;6297836;28;20094;-69
2023/08/24 04:02:42;;;;;;;7.53;5.47;;;;;;;24.64;83.47;100019.72;6296893;28;20186;-69
2023/08/24 04:05:45;;;;;;;7.25;5.43;;;;;;;24.66;83.96;100011.53;6297597;28;20488;-70
2023/08/24 04:08:45;;;;;;;8.05;6.00;;;;;;;24.66;84.10;100019.53;6296468;28;20139;-69
2023/08/24 04:11:46;;;;;;;6.93;4.97;;;;;;;24.75;83.70;100021.09;6297729;28;20540;-70
2023/08/24 04:14:47;;;;;;;9.73;5.80;;;;;;;24.65;84.10;100026.72;6297743;28;20060;-70
2023/08/24 04:17:48;;;;;;;11.47;5.83;;;;;;;24.77;83.57;100021.75;6296797;28;20052;-71
2023/08/24 04:20:53;;;;;;;8.27;5.18;;;;;;;24.81;83.00;100022.19;6296640;28;20048;-71
2023/08/24 04:23:53;;;;;;;10.43;5.80;;;;;;;24.84;83.01;100019.97;6296343;28;20087;-70
2023/08/24 04:26:54;;;;;;;6.27;5.13;;;;;;;24.80;82.93;100020.53;6296381;28;20429;-70
2023/08/24 04:30:00;;;;;;;7.13;5.40;;;;;;;24.74;83.69;100019.44;6296464;28;20106;-70
2023/08/24 04:33:03;;;;;;;8.00;5.38;;;;;;;24.84;83.14;100014.63;6297267;28;20060;-70
2023/08/24 04:36:04;;;;;;;8.85;5.38;;;;;;;24.94;82.55;100014.34;6297051;28;20404;-70
2023/08/24 04:39:04;;;;;;;7.82;5.30;;;;;;;24.85;83.69;100015.44;6295973;28;20432;-71
2023/08/24 04:42:06;;;;;;;11.83;5.00;;;;;;;24.89;83.17;100019.41;6281876;28;20071;-71
2023/08/24 04:45:09;;;;;;;7.97;4.88;;;;;;;25.00;82.75;100015.41;6270953;28;20079;-71
2023/08/24 04:48:12;;;;;;;6.50;4.88;;;;;;;25.06;82.28;100020.00;6270851;28;20049;-71
2023/08/24 04:51:15;;;;;;;5.07;4.35;;;;;;;25.12;82.33;100029.91;6272175;28;20417;-71
2023/08/24 04:54:19;;;;;;;8.38;4.32;;;;;;;25.39;81.61;100035.56;6272581;28;20108;-70
2023/08/24 04:57:20;;;;;;;7.20;4.07;;;;;;;25.43;80.68;100034.16;6271876;28;20045;-71
2023/08/24 05:00:20;;;;;;;6.27;4.67;;;;;;;25.39;81.78;100043.56;6286428;28;20110;-71
2023/08/24 05:03:21;;;;;;;11.23;4.63;;;;;;;25.46;80.95;100037.28;6296095;28;20052;-70
2023/08/24 05:06:24;;;;;;;12.93;5.27;;;;;;;25.39;82.27;100038.22;6295375;28;20121;-70
2023/08/24 05:09:25;;;;;;;7.20;4.75;;;;;;;25.53;82.22;100032.84;6296848;28;20178;-71
2023/08/24 05:12:26;;;;;;;10.13;4.53;;;;;;;25.66;81.21;100037.47;6295644;28;20451;-69
2023/08/24 05:15:27;;;;;;;6.43;4.47;;;;;;;25.60;82.06;100043.59;6295552;28;20135;-71
2023/08/24 05:18:28;;;;;;;6.93;4.65;;;;;;;25.97;80.66;100046.19;6295441;28;20515;-71
2023/08/24 05:21:29;;;;;;;8.33;4.00;;;;;;;26.07;79.00;100047.47;6296653;28;20063;-70
2023/08/24 05:24:29;;;;;;;5.60;3.63;;;;;;;26.39;77.34;100049.72;6295398;28;20048;-70
2023/08/24 05:27:30;;;;;;;5.73;4.13;;;;;;;26.53;77.13;100041.56;6296355;28;20091;-70
2023/08/24 05:30:31;;;;;;;5.88;4.18;;;;;;;26.45;77.84;100035.56;6300103;28;20055;-71
2023/08/24 05:33:33;;;;;;;5.20;3.80;;;;;;;26.47;77.51;100041.53;6300306;28;20053;-70
2023/08/24 05:36:41;;;;;;;6.10;4.60;;;;;;;26.41;77.55;100050.38;6300302;28;20052;-71
2023/08/24 05:39:42;;;;;;;5.35;3.60;;;;;;;26.96;76.29;100040.56;6300146;28;20049;-70
2023/08/24 05:42:43;;;;;;;4.85;3.72;;;;;;;26.76;77.36;100043.16;6301406;28;20052;-70
2023/08/24 05:45:46;;;;;;;4.70;3.47;;;;;;;27.24;75.98;100051.19;6301230;28;20137;-71
2023/08/24 05:48:47;;;;;;;4.97;3.88;;;;;;;27.49;75.01;100053.28;6301213;28;20057;-71
2023/08/24 05:51:52;;;;;;;5.27;3.93;;;;;;;27.37;76.51;100053.06;6299813;28;20071;-71
2023/08/24 05:54:53;;;;;;;6.07;5.13;;;;;;;26.73;80.70;100059.63;6300044;28;20048;-71
2023/08/24 05:57:53;;;;;;;7.53;5.33;;;;;;;27.05;80.44;100050.03;6300559;28;20440;-71
2023/08/24 06:01:02;;;;;;;7.83;5.60;;;;;;;27.24;79.72;100058.38;6300854;28;20048;-70
2023/08/24 06:04:05;;;;;;;8.15;5.85;;;;;;;27.17;79.13;100054.81;6300627;28;20476;-70
2023/08/24 06:07:06;;;;;;;7.13;5.15;;;;;;;27.44;78.04;100050.38;6299487;28;20064;-70
2023/08/24 06:10:07;;;;;;;8.18;5.40;;;;;;;27.38;77.47;100049.31;6300620;28;20504;-71
2023/08/24 06:13:08;;;;;;;;;;;;;;;27.28;78.37;100044.38;6300960;28;20061;-70
2023/08/24 06:16:09;;;;;;;6.85;4.97;;;;;;;27.36;77.04;100043.34;6300422;28;19967;-69
2023/08/24 06:19:09;;;;;;;10.27;5.13;;;;;;;27.30;77.84;100045.00;6299116;28;20048;-70
2023/08/24 06:22:12;;;;;;;8.43;5.10;;;;;;;27.66;75.64;100051.84;6296196;28;20052;-70
2023/08/24 06:25:16;;;;;;;8.35;5.22;;;;;;;28.08;73.26;100051.63;6286682;28;20135;-72
2023/08/24 06:28:19;;;;;;;8.68;5.13;;;;;;;27.60;75.97;100049.16;6286591;28;20515;-72
2023/08/24 06:31:19;;;;;;;7.53;5.50;;;;;;;27.92;74.48;100048.38;6294723;28;20097;-71
2023/08/24 06:34:20;;;;;;;8.60;5.50;;;;;;;27.86;74.81;100046.53;6295513;28;20044;-71
2023/08/24 06:37:21;;;;;;;11.23;5.50;;;;;;;28.17;72.85;100047.72;6298673;28;20049;-70
2023/08/24 06:40:22;;;;;;;11.80;5.27;;;;;;;28.07;72.94;100048.16;6298250;28;20110;-70
2023/08/24 06:43:23;;;;;;;7.73;5.27;;;;;;;28.13;73.45;100044.63;6299933;28;20057;-72
2023/08/24 06:46:23;;;;;;;9.03;5.00;;;;;;;28.51;72.65;100040.44;6298616;28;20109;-70
2023/08/24 06:49:25;;;;;;;5.57;4.47;;;;;;;28.52;71.35;100037.53;6296622;28;20285;-70
2023/08/24 06:52:26;;;;;;;7.13;5.00;;;;;;;28.62;71.41;100036.25;6299493;28;20052;-72
2023/08/24 06:55:27;;;;;;;9.13;4.80;;;;;;;28.91;69.43;100043.78;6298827;28;20101;-72
2023/08/24 06:58:28;;;;;;;9.07;5.63;;;;;;;28.91;69.78;100046.47;6297724;28;20139;-72
2023/08/24 07:01:31;;;;;;;8.57;6.23;;;;;;;28.61;70.66;100056.09;6297394;28;20715;-72
2023/08/24 07:04:34;;;;;;;7.38;5.55;;;;;;;29.11;69.21;100056.31;6298018;28;20053;-72
2023/08/24 07:07:35;;;;;;;7.10;5.25;;;;;;;29.27;68.30;100060.34;6298036;28;20083;-72
2023/08/24 07:10:36;;;;;;;5.97;4.53;;;;;;;29.26;68.02;100058.69;6284227;28;20140;-72
2023/08/24 07:13:39;;;;;;;7.43;5.30;;;;;;;29.26;67.93;100072.13;6298065;28;20056;-72
2023/08/24 07:16:40;;;;;;;8.38;5.72;;;;;;;29.40;66.10;100071.00;6297959;28;20094;-70
2023/08/24 07:19:41;;;;;;;6.97;5.20;;;;;;;29.64;63.80;100068.59;6297644;28;20052;-72
2023/08/24 07:22:42;;;;;;;8.93;5.20;;;;;;;29.83;63.29;100074.88;6297958;28;20273;-72
2023/08/24 07:25:43;;;;;;;8.05;5.55;;;;;;;30.01;62.31;100079.47;6297539;28;20292;-72
2023/08/24 07:28:44;;;;;;;7.15;5.50;;;;;;;29.74;65.10;100087.78;6297641;28;20057;-72
2023/08/24 07:31:44;;;;;;;6.53;4.97;;;;;;;29.69;64.21;100082.19;6298609;28;20056;-72
2023/08/24 07:34:45;;;;;;;7.40;5.10;;;;;;;30.06;61.11;100085.00;6294004;28;20052;-70
2023/08/24 07:37:48;;;;;;;9.03;5.27;;;;;;;30.11;62.56;100080.63;6281067;28;20568;-70
2023/08/24 07:40:49;;;;;;;6.95;5.10;;;;;;;30.36;62.39;100079.78;6279875;28;20293;-69
2023/08/24 07:43:50;;;;;;;8.43;5.18;;;;;;;30.41;61.25;100079.94;6285212;28;20137;-70
2023/08/24 07:46:50;;;;;;;8.37;4.87;;;;;;;30.55;60.97;100077.09;6281975;28;20136;-70
2023/08/24 07:49:51;;;;;;;11.00;5.95;;;;;;;30.22;61.69;100080.94;6290161;28;20051;-70
2023/08/24 07:52:52;;;;;;;8.57;5.45;;;;;;;30.57;58.55;100081.22;6295064;28;20049;-70
2023/08/24 07:55:57;;;;;;;7.10;5.18;;;;;;;30.40;61.08;100080.19;6293231;28;20044;-70
2023/08/24 07:58:58;;;;;;;6.55;4.85;;;;;;;30.56;59.46;100084.97;6293183;28;21401;-72
2023/08/24 08:01:59;;;;;;;11.98;5.05;;;;;;;30.69;59.24;100076.72;6282447;28;20465;-73
2023/08/24 08:05:02;;;;;;;6.55;4.78;;;;;;;31.18;58.28;100073.25;6273405;28;20053;-72
2023/08/24 08:08:04;;;;;;;10.73;4.95;;;;;;;31.43;59.95;100078.47;6289919;28;20123;-73
2023/08/24 08:11:05;;;;;;;8.27;5.35;;;;;;;30.90;58.36;100085.41;6282699;28;20911;-72
2023/08/24 08:14:06;;;;;;;8.95;5.00;;;;;;;30.92;56.06;100080.63;6283820;28;20056;-73
2023/08/24 08:17:06;;;;;;;5.60;4.53;;;;;;;30.76;55.64;100083.91;6290722;28;20052;-70
2023/08/24 08:20:07;;;;;;;6.65;4.70;;;;;;;31.40;56.54;100084.31;6288813;28;20468;-70
2023/08/24 08:23:10;;;;;;;8.18;4.70;;;;;;;31.84;56.09;100083.03;6292314;28;20052;-73
2023/08/24 08:26:13;;;;;;;7.28;4.32;;;;;;;31.67;53.58;100091.00;6292750;28;20044;-72
2023/08/24 08:29:14;;;;;;;10.35;4.43;;;;;;;31.63;55.03;100088.97;6287177;28;20492;-72
2023/08/24 08:32:15;;;;;;;7.55;4.45;;;;;;;31.75;54.70;100084.41;6286830;28;20165;-73
2023/08/24 08:35:15;;;;;;;9.73;4.80;;;;;;;32.01;52.70;100087.78;6283903;28;20106;-73
2023/08/24 08:38:16;;;;;;;8.05;4.78;;;;;;;32.56;52.35;100086.59;6286643;28;20408;-72
2023/08/24 08:41:22;;;;;;;6.38;4.55;;;;;;;31.69;54.17;100083.50;6296170;28;20055;-72
2023/08/24 08:44:24;;;;;;;10.32;5.03;;;;;;;31.67;54.90;100093.69;6295982;28;20145;-71
2023/08/24 08:47:25;;;;;;;7.55;4.38;;;;;;;32.15;51.48;100093.78;6295779;28;20049;-73
2023/08/24 08:50:26;;;;;;;6.30;4.43;;;;;;;32.57;50.87;100088.22;6295841;28;20488;-71
2023/08/24 08:53:29;;;;;;;11.13;4.68;;;;;;;32.89;50.99;100081.34;6296850;28;20135;-73
2023/08/24 08:56:30;;;;;;;6.90;4.55;;;;;;;33.18;51.75;100072.44;6295600;28;20105;-73
2023/08/24 08:59:31;;;;;;;9.02;4.35;;;;;;;33.07;48.48;100074.94;6295426;28;20488;-73
2023/08/24 09:02:33;;;;;;;7.05;5.00;;;;;;;33.69;48.84;100079.56;6295472;28;20075;-70
2023/08/24 09:05:37;;;;;;;9.30;4.47;;;;;;;33.10;48.93;100079.06;6296657;28;20065;-70
2023/08/24 09:08:40;;;;;;;6.28;3.95;;;;;;;32.35;48.06;100080.72;6296991;28;20688;-72
2023/08/24 09:11:47;;;;;;;12.70;4.68;;;;;;;32.95;48.32;100078.72;6296552;28;20057;-73
2023/08/24 09:14:50;;;;;;;4.60;4.15;;;;;;;32.40;48.15;100071.91;6295688;28;20049;-72
2023/08/24 09:17:51;;;;;;;5.13;4.10;;;;;;;33.40;48.60;100073.38;6296371;28;20044;-73
2023/08/24 09:20:54;;;;;;;5.25;4.00;;;;;;;32.81;46.69;100080.91;6295241;28;20055;-72
2023/08/24 09:23:56;;;;;;;8.77;4.60;;;;;;;32.79;49.32;100078.44;6295442;28;20497;-73
2023/08/24 09:26:56;;;;;;;;;;;;;;;33.17;47.07;100063.50;6296955;28;20053;-73
2023/08/24 09:29:57;;;;;;;6.10;4.03;;;;;;;33.09;46.31;100069.28;6295537;28;19921;-73
2023/08/24 09:33:09;;;;;;;4.93;4.18;;;;;;;33.79;44.93;100065.41;6296436;28;20076;-72
2023/08/24 09:36:09;;;;;;;4.38;3.80;;;;;;;33.68;46.15;100064.41;6295293;28;20048;-73
2023/08/24 09:39:16;;;;;;;5.43;3.83;;;;;;;33.75;44.75;100061.56;6295144;28;20090;-73
2023/08/24 09:42:25;;;;;;;4.72;3.50;;;;;;;33.70;44.49;100066.88;6295105;28;20488;-71
2023/08/24 09:45:26;;;;;;;4.65;3.80;;;;;;;33.92;43.88;100059.63;6295147;28;20053;-70
2023/08/24 09:48:26;;;;;;;9.88;3.80;;;;;;;34.67;43.34;100067.47;6295205;28;20051;-73
2023/08/24 09:51:27;;;;;;;6.97;3.70;;;;;;;34.20;42.39;100067.91;6289678;28;20487;-70
2023/08/24 09:54:31;;;;;;;;;;;;;;;33.51;43.72;100066.25;6295662;28;20080;-71
2023/08/24 09:57:41;;;;;;;7.22;4.03;;;;;;;34.28;43.73;100062.06;6295734;28;19927;-73
2023/08/24 10:00:46;;;;;;;4.72;3.42;;;;;;;34.56;44.56;100061.06;6293597;28;20050;-70
2023/08/24 10:03:52;;;;;;;5.20;3.83;;;;;;;34.16;40.61;100058.63;6294803;28;20049;-70
2023/08/24 10:06:59;;;;;;;6.03;3.60;;;;;;;34.01;41.94;100061.94;6294826;28;20101;-70
2023/08/24 10:10:03;;;;;;;5.85;3.35;;;;;;;34.29;40.32;100058.28;6294550;28;20401;-72
2023/08/24 10:13:10;;;;;;;4.93;3.33;;;;;;;34.98;39.76;100059.69;6296270;28;20048;-73
2023/08/24 10:16:15;;;;;;;6.22;3.25;;;;;;;34.91;39.92;100054.47;6298050;28;20060;-70
2023/08/24 10:19:17;;;;;;;5.47;3.38;;;;;;;35.16;39.20;100056.63;6299232;28;20053;-72
2023/08/24 10:22:21;;;;;;;5.30;3.67;;;;;;;35.59;37.85;100059.47;6300412;28;20106;-70
2023/08/24 10:25:25;;;;;;;3.80;3.03;;;;;;;35.87;38.30;100064.59;6298825;28;20052;-71
2023/08/24 10:28:29;;;;;;;4.28;3.38;;;;;;;34.31;39.57;100056.16;6299130;28;20496;-73
2023/08/24 10:31:30;;;;;;;4.40;3.25;;;;;;;34.71;39.31;100049.63;6298813;28;20131;-73
2023/08/24 10:34:31;;;;;;;4.43;3.33;;;;;;;35.26;38.70;100045.09;6298717;28;20519;-73
2023/08/24 10:37:34;;;;;;;;;;;;;;;35.47;38.38;100046.06;6294191;28;20073;-73
2023/08/24 10:40:39;;;;;;;6.50;3.00;;;;;;;35.79;36.34;100037.94;6286724;28;19921;-73
2023/08/24 10:43:41;;;;;;;3.75;3.13;;;;;;;35.91;37.38;100044.00;6297069;28;20500;-71
2023/08/24 10:46:42;;;;;;;4.47;3.40;;;;;;;36.43;37.94;100036.94;6298782;28;20052;-71
2023/08/24 10:49:43;;;;;;;;;;;;;;;36.49;36.51;100043.22;6299307;28;20052;-70
2023/08/24 10:52:44;;;;;;;5.90;3.60;;;;;;;36.05;34.80;100051.66;6299597;28;20077;-70
2023/08/24 10:55:45;;;;;;;4.05;3.15;;;;;;;36.09;36.26;100041.91;6298377;28;20572;-70
2023/08/24 10:58:46;;;;;;;;;;;;;;;36.53;36.00;100038.06;6298052;28;20421;-69
2023/08/24 11:01:49;;;;;;;6.07;3.83;;;;;;;36.46;36.64;100035.59;6298185;28;19932;-70
2023/08/24 11:05:05;;;;;;;7.35;3.90;;;;;;;36.57;35.02;100036.44;6299154;28;20057;-70
2023/08/24 11:08:08;;;;;;;5.28;3.50;;;;;;;35.91;38.01;100037.72;6299367;28;20068;-72
2023/08/24 11:11:24;;;;;;;5.40;3.58;;;;;;;36.37;37.00;100034.47;6297910;28;20052;-70
2023/08/24 11:14:26;;;;;;;3.80;3.40;;;;;;;36.31;35.88;100025.50;6299325;28;20098;-70
2023/08/24 11:17:33;;;;;;;4.00;3.33;;;;;;;36.34;36.40;100024.94;6287756;28;20501;-73
2023/08/24 11:20:38;;;;;;;7.95;3.80;;;;;;;35.58;37.40;100019.84;6290831;28;20101;-73
2023/08/24 11:23:39;;;;;;;5.18;3.33;;;;;;;34.52;37.73;100014.72;6288300;28;20045;-69
2023/08/24 11:26:42;;;;;;;;;;;;;;;34.90;39.96;100012.16;6280528;28;20104;-70
2023/08/24 11:29:43;;;;;;;5.57;3.85;;;;;;;34.43;38.79;100015.38;6290181;28;20001;-73
2023/08/24 11:32:44;;;;;;;;;;;;;;;35.50;37.33;100007.56;6294848;28;20048;-70
2023/08/24 11:35:47;;;;;;;9.45;3.47;;;;;;;35.91;37.28;100007.84;6297271;28;20341;-73
2023/08/24 11:38:48;;;;;;;4.50;3.30;;;;;;;36.02;36.81;100006.03;6297599;28;20135;-73
2023/08/24 11:42:01;;;;;;;;;;;;;;;36.27;36.24;100003.47;6298893;28;20052;-73
2023/08/24 11:45:11;;;;;;;10.68;3.72;;;;;;;36.15;35.53;99991.19;6298623;28;19921;-73
2023/08/24 11:48:14;;;;;;;4.85;3.28;;;;;;;36.05;36.17;99994.63;6297186;28;20045;-70
2023/08/24 11:51:15;;;;;;;3.80;3.20;;;;;;;36.41;35.62;99994.84;6297820;28;20048;-71
2023/08/24 11:54:18;;;;;;;5.15;3.60;;;;;;;36.88;33.97;99989.28;6297057;28;20051;-72
2023/08/24 11:57:19;;;;;;;5.40;3.30;;;;;;;36.87;33.51;99992.25;6297155;28;20094;-73
2023/08/24 12:00:21;;;;;;;4.90;3.80;;;;;;;36.79;34.87;99985.44;6296831;28;20522;-70
2023/08/24 12:03:22;;;;;;;8.45;3.35;;;;;;;36.50;36.40;99993.22;6297004;28;20048;-70
2023/08/24 12:06:28;;;;;;;14.98;4.13;;;;;;;36.47;35.88;99989.16;6297480;28;20071;-70
2023/08/24 12:09:29;;;;;;;8.82;3.42;;;;;;;36.21;34.53;99977.38;6297760;28;20044;-70
2023/08/24 12:12:30;;;;;;;8.68;3.60;;;;;;;36.35;34.44;99985.03;6296585;28;20076;-70
2023/08/24 12:15:34;;;;;;;6.57;3.20;;;;;;;36.58;34.84;99981.03;6296448;28;20105;-70
2023/08/24 12:18:46;;;;;;;6.80;3.85;;;;;;;37.02;32.30;99975.13;6296508;28;20045;-71
2023/08/24 12:21:50;;;;;;;5.57;3.40;;;;;;;36.68;33.09;99970.22;6296242;28;20084;-70
2023/08/24 12:24:51;;;;;;;4.40;3.53;;;;;;;37.20;34.56;99980.06;6296461;28;20052;-70
2023/08/24 12:28:07;;;;;;;3.20;2.90;;;;;;;37.01;33.22;99977.03;6287766;28;20051;-70
2023/08/24 12:31:08;;;;;;;4.65;2.92;;;;;;;37.02;34.89;99973.22;6294354;28;20052;-70
2023/08/24 12:34:14;;;;;;;4.50;3.28;;;;;;;36.01;33.10;99975.34;6283293;28;20471;-70
2023/08/24 12:37:17;;;;;;;4.28;3.33;;;;;;;35.39;35.91;99973.31;6287065;28;20072;-72
2023/08/24 12:40:17;;;;;;;6.55;3.05;;;;;;;34.53;37.36;99955.94;6295671;28;20508;-70
2023/08/24 12:43:18;;;;;;;7.65;3.85;;;;;;;35.21;39.63;99960.97;6297291;28;20102;-70
2023/08/24 12:46:19;;;;;;;4.43;3.03;;;;;;;35.85;36.49;99955.47;6295922;28;20128;-70
2023/08/24 12:49:20;;;;;;;3.92;3.22;;;;;;;36.44;36.79;99953.53;6296147;28;20053;-69
2023/08/24 12:52:22;;;;;;;5.60;3.38;;;;;;;36.08;35.39;99946.06;6297110;28;20052;-71
2023/08/24 12:55:23;;;;;;;4.55;3.38;;;;;;;36.34;34.96;99951.59;6296862;28;20530;-69
2023/08/24 12:58:23;;;;;;;5.50;3.50;;;;;;;35.49;37.46;99946.25;6297016;28;20048;-70
2023/08/24 13:01:24;;;;;;;4.90;3.33;;;;;;;34.51;36.87;99944.53;6295702;28;20134;-72
2023/08/24 13:04:25;;;;;;;;;;;;;;;33.90;36.98;99947.31;6297139;28;20056;-71
2023/08/24 13:07:26;;;;;;;5.07;3.53;;;;;;;35.23;37.01;99942.53;6295633;28;19924;-70
2023/08/24 13:10:30;;;;;;;4.25;3.25;;;;;;;35.20;36.27;99940.34;6295478;28;20287;-70
2023/08/24 13:13:33;;;;;;;4.93;3.33;;;;;;;35.16;34.27;99934.63;6295516;28;20146;-70
2023/08/24 13:16:36;;;;;;;4.20;3.00;;;;;;;35.24;34.19;99939.56;6295596;28;20049;-70
2023/08/24 13:19:38;;;;;;;3.97;3.15;;;;;;;36.06;35.14;99933.84;6296772;28;20052;-73
2023/08/24 13:22:38;;;;;;;8.55;3.30;;;;;;;35.90;36.29;99922.09;6296508;28;20102;-72
2023/08/24 13:25:40;;;;;;;;;;;;;;;35.63;37.64;99928.44;6297107;28;20139;-70
2023/08/24 13:28:40;;;;;;;;;;;;;;;35.66;35.27;99927.13;6294361;28;19966;-70
2023/08/24 13:31:41;;;;;;;4.18;3.10;;;;;;;35.96;33.57;99926.47;6291703;28;19921;-70
2023/08/24 13:34:43;;;;;;;4.38;3.08;;;;;;;35.86;34.87;99919.09;6291790;28;20113;-69
2023/08/24 13:37:44;;;;;;;5.53;3.20;;;;;;;35.79;34.80;99917.69;6297534;28;20044;-70
2023/08/24 13:40:45;;;;;;;4.57;3.10;;;;;;;35.97;34.59;99924.56;6295156;28;20550;-72
2023/08/24 13:43:45;;;;;;;5.97;3.40;;;;;;;35.54;35.46;99916.44;6294813;28;20049;-72
2023/08/24 13:46:46;;;;;;;4.53;3.00;;;;;;;35.45;36.05;99915.31;6296177;28;20048;-72
2023/08/24 13:49:48;;;;;;;4.68;3.13;;;;;;;35.91;33.77;99919.13;6297381;28;20044;-73
2023/08/24 13:52:49;;;;;;;4.70;3.17;;;;;;;35.75;34.47;99914.69;6300903;28;20048;-70
2023/08/24 13:55:50;;;;;;;3.97;2.97;;;;;;;35.82;35.23;99928.03;6295284;28;20052;-73
2023/08/24 13:58:53;;;;;;;7.55;3.60;;;;;;;35.86;36.43;99926.41;6299887;28;20049;-72
2023/08/24 14:01:53;;;;;;;5.57;3.20;;;;;;;35.50;36.85;99918.03;6292510;28;20074;-73
2023/08/24 14:04:55;;;;;;;3.58;2.90;;;;;;;35.68;36.52;99917.63;6281218;28;20518;-73
2023/08/24 14:07:59;;;;;;;4.50;3.17;;;;;;;34.81;36.13;99910.72;6283616;28;20135;-73
2023/08/24 14:11:02;;;;;;;5.07;3.30;;;;;;;34.88;36.63;99919.44;6285724;28;20048;-70
2023/08/24 14:14:03;;;;;;;4.72;2.92;;;;;;;34.71;37.29;99922.28;6297870;28;20052;-71
2023/08/24 14:17:04;;;;;;;;;;;;;;;34.95;36.11;99920.06;6299597;28;20503;-70